N67322 KBUR-KBFL
Flight info
| Callsign | N67322 |
|---|---|
| Flight time | 1h 12m |
| Altitude | 5000 |
| Route | VNY3/GMN GMN/FASTO2 |
| Aircraft | C172/L-VGD/C |
Departure
| Time | 2026-04-26 01:08 |
|---|---|
| Airport | Hollywood Burbank/Bob Hope Airport (KBUR) |
Arrival
| Time | 2026-04-26 02:20 |
|---|---|
| Airport | Meadows Field (KBFL) |
| Time | Latitude | Longitude | Altitude | Speed | Heading |
|---|---|---|---|---|---|
| 2026-04-26 00:41 | 34.19659 | -118.35479 | 705 ft | 0 kts | 178° |
| 2026-04-26 00:59 | 34.19652 | -118.35493 | 705 ft | 4 kts | 242° |
| 2026-04-26 01:00 | 34.19647 | -118.35505 | 705 ft | 0 kts | 253° |
| 2026-04-26 01:00 | 34.19644 | -118.35517 | 705 ft | 6 kts | 259° |
| 2026-04-26 01:00 | 34.19677 | -118.35561 | 707 ft | 10 kts | 351° |
| 2026-04-26 01:01 | 34.19691 | -118.35563 | 708 ft | 0 kts | 352° |
| 2026-04-26 01:01 | 34.19692 | -118.35563 | 708 ft | 0 kts | 350° |
| 2026-04-26 01:02 | 34.19693 | -118.35563 | 708 ft | 1 kts | 350° |
| 2026-04-26 01:02 | 34.19732 | -118.35548 | 708 ft | 10 kts | 34° |
| 2026-04-26 01:02 | 34.19833 | -118.35529 | 710 ft | 16 kts | 349° |
| 2026-04-26 01:02 | 34.19865 | -118.35535 | 711 ft | 4 kts | 345° |
| 2026-04-26 01:03 | 34.19923 | -118.35550 | 714 ft | 12 kts | 344° |
| 2026-04-26 01:03 | 34.20028 | -118.35579 | 719 ft | 18 kts | 348° |
| 2026-04-26 01:03 | 34.20173 | -118.35620 | 725 ft | 23 kts | 348° |
| 2026-04-26 01:03 | 34.20348 | -118.35667 | 736 ft | 27 kts | 346° |
| 2026-04-26 01:04 | 34.20543 | -118.35722 | 745 ft | 30 kts | 347° |
| 2026-04-26 01:04 | 34.20766 | -118.35783 | 754 ft | 34 kts | 345° |
| 2026-04-26 01:04 | 34.20975 | -118.35781 | 759 ft | 19 kts | 32° |
| 2026-04-26 01:04 | 34.21037 | -118.35811 | 762 ft | 0 kts | 313° |
| 2026-04-26 01:05 | 34.21038 | -118.35812 | 762 ft | 0 kts | 309° |
| 2026-04-26 01:05 | 34.21054 | -118.35844 | 763 ft | 7 kts | 309° |
| 2026-04-26 01:06 | 34.21112 | -118.35880 | 765 ft | 12 kts | 345° |
| 2026-04-26 01:06 | 34.21186 | -118.35951 | 770 ft | 15 kts | 293° |
| 2026-04-26 01:06 | 34.21117 | -118.36018 | 771 ft | 19 kts | 170° |
| 2026-04-26 01:06 | 34.20872 | -118.35949 | 762 ft | 58 kts | 166° |
| 2026-04-26 01:07 | 34.20433 | -118.35844 | 873 ft | 69 kts | 169° |
| 2026-04-26 01:07 | 34.19991 | -118.35723 | 1039 ft | 71 kts | 168° |
| 2026-04-26 01:07 | 34.19464 | -118.35575 | 1119 ft | 81 kts | 168° |
| 2026-04-26 01:07 | 34.18972 | -118.35573 | 1297 ft | 77 kts | 202° |
| 2026-04-26 01:08 | 34.18589 | -118.35922 | 1475 ft | 74 kts | 221° |
| 2026-04-26 01:08 | 34.18254 | -118.36348 | 1660 ft | 72 kts | 224° |
| 2026-04-26 01:08 | 34.17932 | -118.36777 | 1825 ft | 71 kts | 224° |
| 2026-04-26 01:08 | 34.17616 | -118.37194 | 1987 ft | 71 kts | 225° |
| 2026-04-26 01:09 | 34.17291 | -118.37611 | 2148 ft | 71 kts | 224° |
| 2026-04-26 01:09 | 34.16967 | -118.38013 | 2301 ft | 71 kts | 225° |
| 2026-04-26 01:09 | 34.16635 | -118.38416 | 2461 ft | 70 kts | 224° |
| 2026-04-26 01:09 | 34.16312 | -118.38796 | 2613 ft | 70 kts | 225° |
| 2026-04-26 01:10 | 34.15976 | -118.39180 | 2767 ft | 70 kts | 225° |
| 2026-04-26 01:10 | 34.15646 | -118.39545 | 2922 ft | 69 kts | 224° |
| 2026-04-26 01:10 | 34.15313 | -118.39904 | 3065 ft | 69 kts | 225° |
| 2026-04-26 01:10 | 34.14969 | -118.40263 | 3215 ft | 69 kts | 224° |
| 2026-04-26 01:11 | 34.14629 | -118.40607 | 3359 ft | 69 kts | 224° |
| 2026-04-26 01:11 | 34.14288 | -118.40949 | 3490 ft | 69 kts | 225° |
| 2026-04-26 01:11 | 34.13944 | -118.41294 | 3629 ft | 69 kts | 225° |
| 2026-04-26 01:11 | 34.13756 | -118.41773 | 3749 ft | 70 kts | 268° |
| 2026-04-26 01:12 | 34.13881 | -118.42333 | 3898 ft | 71 kts | 287° |
| 2026-04-26 01:12 | 34.14095 | -118.42878 | 4041 ft | 72 kts | 290° |
| 2026-04-26 01:12 | 34.14336 | -118.43411 | 4187 ft | 72 kts | 292° |
| 2026-04-26 01:12 | 34.14597 | -118.43942 | 4320 ft | 74 kts | 295° |
| 2026-04-26 01:13 | 34.14867 | -118.44460 | 4467 ft | 73 kts | 295° |
| 2026-04-26 01:13 | 34.15146 | -118.44975 | 4608 ft | 73 kts | 295° |
| 2026-04-26 01:13 | 34.15425 | -118.45480 | 4753 ft | 73 kts | 296° |
| 2026-04-26 01:13 | 34.15712 | -118.45988 | 4912 ft | 73 kts | 296° |
| 2026-04-26 01:14 | 34.15997 | -118.46488 | 5074 ft | 72 kts | 296° |
| 2026-04-26 01:14 | 34.16283 | -118.46987 | 5230 ft | 72 kts | 296° |
| 2026-04-26 01:14 | 34.16568 | -118.47482 | 5387 ft | 72 kts | 297° |
| 2026-04-26 01:14 | 34.16851 | -118.47971 | 5543 ft | 71 kts | 297° |
| 2026-04-26 01:15 | 34.17137 | -118.48467 | 5687 ft | 72 kts | 297° |
| 2026-04-26 01:15 | 34.17425 | -118.48962 | 5835 ft | 73 kts | 297° |
| 2026-04-26 01:15 | 34.17717 | -118.49464 | 5986 ft | 73 kts | 298° |
| 2026-04-26 01:15 | 34.18004 | -118.49957 | 6136 ft | 73 kts | 297° |
| 2026-04-26 01:16 | 34.18296 | -118.50460 | 6276 ft | 74 kts | 297° |
| 2026-04-26 01:16 | 34.18584 | -118.50952 | 6425 ft | 73 kts | 296° |
| 2026-04-26 01:16 | 34.18880 | -118.51463 | 6559 ft | 75 kts | 296° |
| 2026-04-26 01:16 | 34.19172 | -118.51965 | 6700 ft | 75 kts | 296° |
| 2026-04-26 01:17 | 34.19474 | -118.52485 | 6845 ft | 74 kts | 296° |
| 2026-04-26 01:17 | 34.19766 | -118.52985 | 6988 ft | 74 kts | 296° |
| 2026-04-26 01:17 | 34.20059 | -118.53490 | 7126 ft | 74 kts | 296° |
| 2026-04-26 01:17 | 34.20356 | -118.54001 | 7264 ft | 74 kts | 296° |
| 2026-04-26 01:18 | 34.20658 | -118.54520 | 7394 ft | 75 kts | 296° |
| 2026-04-26 01:18 | 34.20954 | -118.55029 | 7520 ft | 75 kts | 296° |
| 2026-04-26 01:18 | 34.21257 | -118.55550 | 7645 ft | 75 kts | 296° |
| 2026-04-26 01:18 | 34.21552 | -118.56058 | 7763 ft | 75 kts | 295° |
| 2026-04-26 01:19 | 34.21845 | -118.56562 | 7878 ft | 75 kts | 295° |
| 2026-04-26 01:19 | 34.22136 | -118.57062 | 7994 ft | 75 kts | 296° |
| 2026-04-26 01:19 | 34.22565 | -118.57450 | 8108 ft | 82 kts | 322° |
| 2026-04-26 01:19 | 34.23082 | -118.57739 | 8216 ft | 84 kts | 325° |
| 2026-04-26 01:20 | 34.23620 | -118.58015 | 8334 ft | 84 kts | 326° |
| 2026-04-26 01:20 | 34.24167 | -118.58291 | 8449 ft | 85 kts | 326° |
| 2026-04-26 01:20 | 34.24710 | -118.58563 | 8562 ft | 85 kts | 326° |
| 2026-04-26 01:20 | 34.25264 | -118.58838 | 8681 ft | 85 kts | 326° |
| 2026-04-26 01:21 | 34.25813 | -118.59110 | 8796 ft | 85 kts | 327° |
| 2026-04-26 01:21 | 34.26360 | -118.59380 | 8899 ft | 87 kts | 327° |
| 2026-04-26 01:21 | 34.26958 | -118.59680 | 8930 ft | 97 kts | 327° |
| 2026-04-26 01:21 | 34.27612 | -118.60008 | 8933 ft | 107 kts | 328° |
| 2026-04-26 01:22 | 34.28328 | -118.60359 | 8930 ft | 113 kts | 329° |
| 2026-04-26 01:22 | 34.29064 | -118.60719 | 8928 ft | 116 kts | 330° |
| 2026-04-26 01:22 | 34.29826 | -118.61091 | 8928 ft | 118 kts | 329° |
| 2026-04-26 01:22 | 34.30591 | -118.61465 | 8926 ft | 118 kts | 330° |
| 2026-04-26 01:23 | 34.31349 | -118.61838 | 8925 ft | 119 kts | 330° |
| 2026-04-26 01:23 | 34.32124 | -118.62218 | 8924 ft | 119 kts | 330° |
| 2026-04-26 01:23 | 34.32886 | -118.62594 | 8921 ft | 119 kts | 330° |
| 2026-04-26 01:23 | 34.33663 | -118.62975 | 8920 ft | 119 kts | 330° |
| 2026-04-26 01:24 | 34.34429 | -118.63353 | 8920 ft | 119 kts | 330° |
| 2026-04-26 01:24 | 34.35202 | -118.63734 | 8921 ft | 119 kts | 330° |
| 2026-04-26 01:24 | 34.35962 | -118.64108 | 8921 ft | 119 kts | 330° |
| 2026-04-26 01:24 | 34.36737 | -118.64490 | 8920 ft | 119 kts | 330° |
| 2026-04-26 01:25 | 34.37507 | -118.64870 | 8917 ft | 119 kts | 330° |
| 2026-04-26 01:25 | 34.38274 | -118.65248 | 8914 ft | 119 kts | 330° |
| 2026-04-26 01:25 | 34.39044 | -118.65627 | 8913 ft | 119 kts | 330° |
| 2026-04-26 01:25 | 34.39815 | -118.66007 | 8916 ft | 119 kts | 330° |
| 2026-04-26 01:26 | 34.40583 | -118.66386 | 8915 ft | 119 kts | 330° |
| 2026-04-26 01:26 | 34.41357 | -118.66768 | 8922 ft | 119 kts | 330° |
| 2026-04-26 01:26 | 34.42123 | -118.67145 | 8925 ft | 119 kts | 330° |
| 2026-04-26 01:26 | 34.42897 | -118.67527 | 8935 ft | 120 kts | 329° |
| 2026-04-26 01:27 | 34.43666 | -118.67908 | 8924 ft | 121 kts | 329° |
| 2026-04-26 01:27 | 34.44454 | -118.68298 | 8919 ft | 121 kts | 330° |
| 2026-04-26 01:27 | 34.45237 | -118.68684 | 8906 ft | 121 kts | 330° |
| 2026-04-26 01:27 | 34.46017 | -118.69070 | 8900 ft | 120 kts | 330° |
| 2026-04-26 01:28 | 34.46782 | -118.69448 | 8905 ft | 120 kts | 331° |
| 2026-04-26 01:28 | 34.47558 | -118.69831 | 8900 ft | 120 kts | 331° |
| 2026-04-26 01:28 | 34.48328 | -118.70211 | 8899 ft | 120 kts | 330° |
| 2026-04-26 01:28 | 34.49104 | -118.70596 | 8893 ft | 120 kts | 331° |
| 2026-04-26 01:29 | 34.49882 | -118.70980 | 8885 ft | 119 kts | 330° |
| 2026-04-26 01:29 | 34.50648 | -118.71358 | 8888 ft | 119 kts | 331° |
| 2026-04-26 01:29 | 34.51413 | -118.71737 | 8886 ft | 119 kts | 331° |
| 2026-04-26 01:29 | 34.52183 | -118.72117 | 8898 ft | 118 kts | 331° |
| 2026-04-26 01:30 | 34.52942 | -118.72493 | 8898 ft | 119 kts | 330° |
| 2026-04-26 01:30 | 34.53721 | -118.72880 | 8887 ft | 120 kts | 331° |
| 2026-04-26 01:30 | 34.54490 | -118.73260 | 8883 ft | 119 kts | 331° |
| 2026-04-26 01:30 | 34.55258 | -118.73640 | 8884 ft | 119 kts | 331° |
| 2026-04-26 01:31 | 34.56028 | -118.74021 | 8885 ft | 119 kts | 331° |
| 2026-04-26 01:31 | 34.56801 | -118.74406 | 8884 ft | 119 kts | 331° |
| 2026-04-26 01:31 | 34.57558 | -118.74780 | 8878 ft | 118 kts | 332° |
| 2026-04-26 01:31 | 34.58332 | -118.75164 | 8879 ft | 118 kts | 330° |
| 2026-04-26 01:32 | 34.59081 | -118.75534 | 8931 ft | 116 kts | 330° |
| 2026-04-26 01:32 | 34.59831 | -118.75906 | 8926 ft | 117 kts | 331° |
| 2026-04-26 01:32 | 34.60584 | -118.76283 | 8928 ft | 116 kts | 330° |
| 2026-04-26 01:32 | 34.61336 | -118.76654 | 8930 ft | 115 kts | 331° |
| 2026-04-26 01:33 | 34.62074 | -118.77023 | 8919 ft | 115 kts | 330° |
| 2026-04-26 01:33 | 34.62825 | -118.77394 | 8920 ft | 115 kts | 331° |
| 2026-04-26 01:33 | 34.63568 | -118.77762 | 8922 ft | 114 kts | 330° |
| 2026-04-26 01:33 | 34.64297 | -118.78126 | 8922 ft | 114 kts | 330° |
| 2026-04-26 01:34 | 34.65035 | -118.78494 | 8912 ft | 113 kts | 331° |
| 2026-04-26 01:34 | 34.65756 | -118.78851 | 8901 ft | 111 kts | 332° |
| 2026-04-26 01:34 | 34.66480 | -118.79211 | 8910 ft | 110 kts | 330° |
| 2026-04-26 01:34 | 34.67188 | -118.79560 | 8909 ft | 110 kts | 331° |
| 2026-04-26 01:35 | 34.67901 | -118.79915 | 8906 ft | 110 kts | 331° |
| 2026-04-26 01:35 | 34.68603 | -118.80263 | 8902 ft | 109 kts | 332° |
| 2026-04-26 01:35 | 34.69313 | -118.80617 | 8909 ft | 108 kts | 330° |
| 2026-04-26 01:35 | 34.70015 | -118.80965 | 8907 ft | 108 kts | 330° |
| 2026-04-26 01:36 | 34.70701 | -118.81309 | 8904 ft | 107 kts | 332° |
| 2026-04-26 01:36 | 34.71393 | -118.81657 | 8894 ft | 107 kts | 330° |
| 2026-04-26 01:36 | 34.72068 | -118.81992 | 8896 ft | 103 kts | 330° |
| 2026-04-26 01:37 | 34.73385 | -118.82645 | 8918 ft | 99 kts | 330° |
| 2026-04-26 01:37 | 34.74030 | -118.82968 | 8891 ft | 99 kts | 332° |
| 2026-04-26 01:37 | 34.74655 | -118.83279 | 8899 ft | 97 kts | 332° |
| 2026-04-26 01:37 | 34.75269 | -118.83585 | 8886 ft | 93 kts | 332° |
| 2026-04-26 01:38 | 34.75850 | -118.83871 | 8903 ft | 87 kts | 329° |
| 2026-04-26 01:38 | 34.76395 | -118.84145 | 8895 ft | 82 kts | 332° |
| 2026-04-26 01:38 | 34.76906 | -118.84398 | 8881 ft | 74 kts | 330° |
| 2026-04-26 01:38 | 34.77301 | -118.84720 | 8756 ft | 76 kts | 283° |
| 2026-04-26 01:39 | 34.77462 | -118.85201 | 8539 ft | 70 kts | 329° |
| 2026-04-26 01:39 | 34.77535 | -118.85229 | 7244 ft | 69 kts | 197° |
| 2026-04-26 01:39 | 34.77532 | -118.85223 | 6979 ft | 68 kts | 345° |
| 2026-04-26 01:39 | 34.77378 | -118.84483 | 5064 ft | 163 kts | 103° |
| 2026-04-26 01:40 | 34.77033 | -118.83226 | 4622 ft | 151 kts | 107° |
| 2026-04-26 01:40 | 34.76597 | -118.82053 | 4346 ft | 141 kts | 115° |
| 2026-04-26 01:40 | 34.76627 | -118.81224 | 4707 ft | 90 kts | 21° |
| 2026-04-26 01:40 | 34.77173 | -118.81310 | 4859 ft | 77 kts | 327° |
| 2026-04-26 01:41 | 34.77480 | -118.81730 | 5134 ft | 59 kts | 308° |
| 2026-04-26 01:41 | 34.77746 | -118.82191 | 5197 ft | 73 kts | 302° |
| 2026-04-26 01:41 | 34.78059 | -118.82664 | 5385 ft | 68 kts | 310° |
| 2026-04-26 01:41 | 34.78357 | -118.83128 | 5526 ft | 71 kts | 308° |
| 2026-04-26 01:42 | 34.78666 | -118.83599 | 5675 ft | 71 kts | 310° |
| 2026-04-26 01:42 | 34.79002 | -118.84045 | 5817 ft | 72 kts | 312° |
| 2026-04-26 01:42 | 34.79371 | -118.84467 | 5974 ft | 72 kts | 315° |
| 2026-04-26 01:42 | 34.79765 | -118.84864 | 6122 ft | 73 kts | 319° |
| 2026-04-26 01:43 | 34.80172 | -118.85232 | 6264 ft | 73 kts | 321° |
| 2026-04-26 01:43 | 34.80597 | -118.85568 | 6398 ft | 74 kts | 327° |
| 2026-04-26 01:43 | 34.81068 | -118.85835 | 6549 ft | 74 kts | 332° |
| 2026-04-26 01:43 | 34.81540 | -118.86070 | 6686 ft | 73 kts | 334° |
| 2026-04-26 01:44 | 34.82014 | -118.86291 | 6834 ft | 73 kts | 334° |
| 2026-04-26 01:44 | 34.82491 | -118.86498 | 6984 ft | 72 kts | 334° |
| 2026-04-26 01:44 | 34.82962 | -118.86695 | 7117 ft | 71 kts | 334° |
| 2026-04-26 01:44 | 34.83437 | -118.86882 | 7256 ft | 70 kts | 335° |
| 2026-04-26 01:45 | 34.83891 | -118.87058 | 7422 ft | 68 kts | 336° |
| 2026-04-26 01:45 | 34.84333 | -118.87221 | 7564 ft | 65 kts | 339° |
| 2026-04-26 01:45 | 34.84776 | -118.87384 | 7649 ft | 68 kts | 336° |
| 2026-04-26 01:45 | 34.85312 | -118.87580 | 7588 ft | 93 kts | 338° |
| 2026-04-26 01:46 | 34.86000 | -118.87818 | 7489 ft | 110 kts | 343° |
| 2026-04-26 01:46 | 34.86242 | -118.87898 | 7441 ft | 114 kts | 344° |
| 2026-04-26 01:51 | 34.86718 | -118.88049 | 7379 ft | 120 kts | 343° |
| 2026-04-26 01:52 | 34.87548 | -118.88318 | 7246 ft | 125 kts | 343° |
| 2026-04-26 01:52 | 34.88386 | -118.88590 | 7154 ft | 125 kts | 341° |
| 2026-04-26 01:52 | 34.89231 | -118.88856 | 7103 ft | 123 kts | 343° |
| 2026-04-26 01:52 | 34.90065 | -118.89122 | 7025 ft | 124 kts | 343° |
| 2026-04-26 01:53 | 34.90911 | -118.89381 | 6945 ft | 123 kts | 343° |
| 2026-04-26 01:53 | 34.91737 | -118.89639 | 6902 ft | 120 kts | 343° |
| 2026-04-26 01:53 | 34.92539 | -118.89893 | 6904 ft | 118 kts | 342° |
| 2026-04-26 01:53 | 34.93338 | -118.90139 | 6899 ft | 117 kts | 343° |
| 2026-04-26 01:54 | 34.94117 | -118.90385 | 6896 ft | 116 kts | 344° |
| 2026-04-26 01:54 | 34.94902 | -118.90627 | 6896 ft | 114 kts | 342° |
| 2026-04-26 01:54 | 34.95672 | -118.90862 | 6901 ft | 114 kts | 343° |
| 2026-04-26 01:54 | 34.96453 | -118.91110 | 6905 ft | 115 kts | 342° |
| 2026-04-26 01:55 | 34.97230 | -118.91348 | 6921 ft | 114 kts | 341° |
| 2026-04-26 01:55 | 34.98010 | -118.91592 | 6893 ft | 114 kts | 343° |
| 2026-04-26 01:55 | 34.98777 | -118.91834 | 6906 ft | 114 kts | 344° |
| 2026-04-26 01:55 | 34.99551 | -118.92072 | 6901 ft | 115 kts | 344° |
| 2026-04-26 01:56 | 35.00324 | -118.92311 | 6904 ft | 114 kts | 345° |
| 2026-04-26 01:56 | 35.01096 | -118.92550 | 6924 ft | 115 kts | 345° |
| 2026-04-26 01:56 | 35.01882 | -118.92796 | 6919 ft | 117 kts | 341° |
| 2026-04-26 01:56 | 35.02678 | -118.93043 | 6912 ft | 116 kts | 345° |
| 2026-04-26 01:57 | 35.03459 | -118.93286 | 6910 ft | 116 kts | 341° |
| 2026-04-26 01:57 | 35.04246 | -118.93530 | 6910 ft | 117 kts | 343° |
| 2026-04-26 01:57 | 35.05033 | -118.93775 | 6903 ft | 116 kts | 342° |
| 2026-04-26 01:57 | 35.05821 | -118.94020 | 6903 ft | 117 kts | 342° |
| 2026-04-26 01:58 | 35.06610 | -118.94265 | 6883 ft | 116 kts | 343° |
| 2026-04-26 01:58 | 35.07388 | -118.94508 | 6894 ft | 115 kts | 344° |
| 2026-04-26 01:58 | 35.08192 | -118.94469 | 6926 ft | 117 kts | 11° |
| 2026-04-26 01:58 | 35.08985 | -118.94210 | 6904 ft | 119 kts | 14° |
| 2026-04-26 01:59 | 35.09775 | -118.93884 | 6905 ft | 119 kts | 21° |
| 2026-04-26 01:59 | 35.10510 | -118.93405 | 6914 ft | 119 kts | 26° |
| 2026-04-26 01:59 | 35.11232 | -118.92901 | 6918 ft | 119 kts | 27° |
| 2026-04-26 01:59 | 35.11962 | -118.92390 | 6919 ft | 120 kts | 27° |
| 2026-04-26 02:00 | 35.12696 | -118.91874 | 6920 ft | 120 kts | 26° |
| 2026-04-26 02:00 | 35.13431 | -118.91360 | 6922 ft | 120 kts | 26° |
| 2026-04-26 02:00 | 35.14159 | -118.90849 | 6923 ft | 120 kts | 27° |
| 2026-04-26 02:00 | 35.14894 | -118.90334 | 6928 ft | 120 kts | 27° |
| 2026-04-26 02:01 | 35.15632 | -118.89816 | 6928 ft | 121 kts | 26° |
| 2026-04-26 02:01 | 35.16363 | -118.89304 | 6928 ft | 121 kts | 26° |
| 2026-04-26 02:01 | 35.17102 | -118.88786 | 6929 ft | 121 kts | 26° |
| 2026-04-26 02:01 | 35.17849 | -118.88262 | 6931 ft | 121 kts | 27° |
| 2026-04-26 02:02 | 35.18604 | -118.87732 | 6933 ft | 121 kts | 27° |
| 2026-04-26 02:02 | 35.19352 | -118.87207 | 6931 ft | 121 kts | 27° |
| 2026-04-26 02:02 | 35.20105 | -118.86742 | 6934 ft | 119 kts | 17° |
| 2026-04-26 02:02 | 35.20909 | -118.86461 | 6933 ft | 118 kts | 7° |
| 2026-04-26 02:03 | 35.21733 | -118.86309 | 6934 ft | 117 kts | 2° |
| 2026-04-26 02:03 | 35.22561 | -118.86230 | 6930 ft | 117 kts | 0° |
| 2026-04-26 02:03 | 35.23382 | -118.86188 | 6930 ft | 117 kts | 359° |
| 2026-04-26 02:03 | 35.24204 | -118.86167 | 6926 ft | 117 kts | 358° |
| 2026-04-26 02:04 | 35.25034 | -118.86156 | 6918 ft | 118 kts | 357° |
| 2026-04-26 02:04 | 35.25864 | -118.86152 | 6925 ft | 118 kts | 356° |
| 2026-04-26 02:04 | 35.26704 | -118.86155 | 6913 ft | 118 kts | 354° |
| 2026-04-26 02:04 | 35.27445 | -118.86562 | 6921 ft | 115 kts | 322° |
| 2026-04-26 02:05 | 35.28075 | -118.87230 | 6922 ft | 116 kts | 316° |
| 2026-04-26 02:05 | 35.28669 | -118.87921 | 6910 ft | 116 kts | 315° |
| 2026-04-26 02:05 | 35.29262 | -118.88627 | 6913 ft | 116 kts | 315° |
| 2026-04-26 02:05 | 35.29849 | -118.89329 | 6912 ft | 115 kts | 314° |
| 2026-04-26 02:06 | 35.30434 | -118.90033 | 6910 ft | 115 kts | 314° |
| 2026-04-26 02:06 | 35.31020 | -118.90743 | 6910 ft | 115 kts | 314° |
| 2026-04-26 02:06 | 35.31599 | -118.91444 | 6913 ft | 115 kts | 314° |
| 2026-04-26 02:06 | 35.32177 | -118.92144 | 6915 ft | 115 kts | 314° |
| 2026-04-26 02:07 | 35.32761 | -118.92852 | 6910 ft | 115 kts | 314° |
| 2026-04-26 02:07 | 35.33339 | -118.93554 | 6919 ft | 115 kts | 314° |
| 2026-04-26 02:07 | 35.33913 | -118.94250 | 6918 ft | 116 kts | 314° |
| 2026-04-26 02:07 | 35.34494 | -118.94955 | 6917 ft | 117 kts | 314° |
| 2026-04-26 02:08 | 35.35072 | -118.95657 | 6927 ft | 116 kts | 314° |
| 2026-04-26 02:08 | 35.35634 | -118.96339 | 6952 ft | 114 kts | 315° |
| 2026-04-26 02:08 | 35.36207 | -118.97035 | 6956 ft | 115 kts | 315° |
| 2026-04-26 02:08 | 35.36774 | -118.97723 | 6960 ft | 115 kts | 315° |
| 2026-04-26 02:09 | 35.37346 | -118.98418 | 6961 ft | 116 kts | 315° |
| 2026-04-26 02:09 | 35.37900 | -118.99126 | 6956 ft | 116 kts | 304° |
| 2026-04-26 02:09 | 35.38022 | -119.00085 | 6960 ft | 117 kts | 257° |
| 2026-04-26 02:09 | 35.37531 | -119.00857 | 6957 ft | 120 kts | 212° |
| 2026-04-26 02:10 | 35.36720 | -119.01150 | 6959 ft | 122 kts | 193° |
| 2026-04-26 02:10 | 35.35927 | -119.01328 | 6921 ft | 103 kts | 192° |
| 2026-04-26 02:10 | 35.35232 | -119.01471 | 6705 ft | 98 kts | 193° |
| 2026-04-26 02:10 | 35.34579 | -119.01488 | 6495 ft | 95 kts | 162° |
| 2026-04-26 02:11 | 35.34084 | -119.00991 | 6312 ft | 87 kts | 117° |
| 2026-04-26 02:11 | 35.34009 | -119.00309 | 6113 ft | 81 kts | 71° |
| 2026-04-26 02:11 | 35.34317 | -118.99777 | 5910 ft | 75 kts | 33° |
| 2026-04-26 02:11 | 35.34753 | -118.99440 | 5708 ft | 74 kts | 27° |
| 2026-04-26 02:12 | 35.35189 | -118.99129 | 5511 ft | 73 kts | 26° |
| 2026-04-26 02:12 | 35.35627 | -118.98817 | 5296 ft | 74 kts | 25° |
| 2026-04-26 02:12 | 35.36081 | -118.98497 | 5055 ft | 77 kts | 26° |
| 2026-04-26 02:12 | 35.36554 | -118.98161 | 4809 ft | 79 kts | 25° |
| 2026-04-26 02:13 | 35.37031 | -118.97824 | 4563 ft | 80 kts | 25° |
| 2026-04-26 02:13 | 35.37513 | -118.97484 | 4316 ft | 81 kts | 26° |
| 2026-04-26 02:13 | 35.37922 | -118.97017 | 4065 ft | 84 kts | 60° |
| 2026-04-26 02:13 | 35.37962 | -118.96294 | 3815 ft | 89 kts | 104° |
| 2026-04-26 02:14 | 35.37588 | -118.95695 | 3566 ft | 91 kts | 142° |
| 2026-04-26 02:14 | 35.37133 | -118.95167 | 3318 ft | 92 kts | 133° |
| 2026-04-26 02:14 | 35.36684 | -118.94615 | 3071 ft | 92 kts | 133° |
| 2026-04-26 02:14 | 35.36265 | -118.94088 | 2957 ft | 77 kts | 133° |
| 2026-04-26 02:15 | 35.35825 | -118.93746 | 2964 ft | 75 kts | 167° |
| 2026-04-26 02:15 | 35.35273 | -118.93617 | 2961 ft | 85 kts | 174° |
| 2026-04-26 02:15 | 35.34689 | -118.93752 | 2975 ft | 87 kts | 218° |
| 2026-04-26 02:15 | 35.34338 | -118.94353 | 2939 ft | 91 kts | 262° |
| 2026-04-26 02:16 | 35.34462 | -118.95123 | 2839 ft | 92 kts | 307° |
| 2026-04-26 02:16 | 35.34951 | -118.95679 | 2730 ft | 98 kts | 321° |
| 2026-04-26 02:16 | 35.35517 | -118.96264 | 2606 ft | 109 kts | 319° |
| 2026-04-26 02:16 | 35.36120 | -118.96933 | 2457 ft | 120 kts | 317° |
| 2026-04-26 02:17 | 35.36747 | -118.97661 | 2287 ft | 125 kts | 316° |
| 2026-04-26 02:17 | 35.37372 | -118.98403 | 2114 ft | 127 kts | 315° |
| 2026-04-26 02:17 | 35.37974 | -118.99145 | 2058 ft | 122 kts | 315° |
| 2026-04-26 02:17 | 35.38593 | -118.99876 | 1831 ft | 127 kts | 315° |
| 2026-04-26 02:18 | 35.39231 | -119.00639 | 1622 ft | 128 kts | 314° |
| 2026-04-26 02:18 | 35.39872 | -119.01406 | 1429 ft | 128 kts | 314° |
| 2026-04-26 02:18 | 35.40506 | -119.02168 | 1249 ft | 125 kts | 314° |
| 2026-04-26 02:18 | 35.41054 | -119.02820 | 1088 ft | 102 kts | 313° |
| 2026-04-26 02:19 | 35.41566 | -119.03439 | 960 ft | 104 kts | 313° |
| 2026-04-26 02:19 | 35.42083 | -119.04060 | 817 ft | 99 kts | 313° |
| 2026-04-26 02:19 | 35.42527 | -119.04591 | 694 ft | 80 kts | 311° |
| 2026-04-26 02:19 | 35.42889 | -119.05023 | 602 ft | 62 kts | 311° |
| 2026-04-26 02:20 | 35.43162 | -119.05351 | 490 ft | 46 kts | 313° |
| 2026-04-26 02:20 | 35.43275 | -119.05490 | 487 ft | 0 kts | 318° |